Sheoaks, Victoria

1:15 PM AEST on August 26, 2016 (GMT +1000)
Lethbridge | | Change Station

Elev 620 ft 37.95 °S, 144.13 °E | Updated 11 minutes ago

Overcast
Overcast
51.7 °F
Feels Like 51.7 °F
N
16.0
Wind Variable Wind from West
Gusts 21.0 mph

Today
High -- | Low -- °F
--% Chance of Precip.
Yesterday
High -- | Low -- °F
Precip. -- in
Pressure 30.15 in
Visibility 6.2 miles
Clouds Mostly Cloudy 4000 ft
Mostly Cloudy 4500 ft
Overcast 5200 ft
Dew Point 42 °F
Humidity 70%
Rainfall 0.00 in
Snow Depth Not available.
6:53 AM 5:57 PM
Last Quarter, 39% visible
METAR YMAV 260300Z AUTO 27012KT 9999 // BKN040 BKN045 OVC052 12/05 Q1021
Pressure 30.15 in
Visibility 6.2 miles
Clouds Mostly Cloudy 4000 ft
Mostly Cloudy 4500 ft
Overcast 5200 ft
Dew Point 42 °F
Humidity 70%
Rainfall 0.00 in
Snow Depth Not available.
6:53 AM 5:57 PM
Last Quarter, 39% visible
METAR YMAV 260300Z AUTO 27012KT 9999 // BKN040 BKN045 OVC052 12/05 Q1021

10-Day Weather Forecast

Almanac

Astronomy

Aug. 26, 2016 Rise Set
Actual Time
Civil Twilight
Nautical Twilight
Astronomical Twilight
Moon
Length of Visible Light
Length of Day
Tomorrow will be .
, % of the Moon is Illuminated

Today's Extremes

Country Highs Country Lows

Community

WunderPhotos

Upload Photos

1,935,036 photos uploaded!

WunderBlog® & News

Nearby

Air Quality

  Air Quality AQ Index Pollutant
Not available.

Snow Depth

Station Depth Elevation

Earthquake Activity

City Distance Mag. Time & Date
Minimum magnitude displayed is 2.5.

Coastal Water Temperatures

Place Temperature

Stations

Nearby Weather Stations

Station Location Temp. Windchill Dew Point Humidity Wind Precip. Elev Updated Type